sensor_id;sensor_type;location;lat;lon;timestamp;P1;durP1;ratioP1;P2;durP2;ratioP2
32319;SDS011;19080;51.750;5.888;2023-03-05T00:01:08;11.30;;;3.50;;
32319;SDS011;19080;51.750;5.888;2023-03-05T00:03:37;10.70;;;3.53;;
32319;SDS011;19080;51.750;5.888;2023-03-05T00:06:05;9.38;;;2.67;;
32319;SDS011;19080;51.750;5.888;2023-03-05T00:08:32;10.55;;;3.08;;
32319;SDS011;19080;51.750;5.888;2023-03-05T00:10:59;9.93;;;4.30;;
32319;SDS011;19080;51.750;5.888;2023-03-05T00:13:28;10.82;;;3.90;;
32319;SDS011;19080;51.750;5.888;2023-03-05T00:15:55;11.50;;;4.05;;
32319;SDS011;19080;51.750;5.888;2023-03-05T00:18:22;12.25;;;4.32;;
32319;SDS011;19080;51.750;5.888;2023-03-05T00:20:49;17.30;;;5.38;;
32319;SDS011;19080;51.750;5.888;2023-03-05T00:23:16;11.90;;;4.93;;
32319;SDS011;19080;51.750;5.888;2023-03-05T00:25:42;13.90;;;2.65;;
32319;SDS011;19080;51.750;5.888;2023-03-05T00:28:11;11.38;;;2.95;;
32319;SDS011;19080;51.750;5.888;2023-03-05T00:30:38;17.58;;;5.00;;
32319;SDS011;19080;51.750;5.888;2023-03-05T00:33:04;11.23;;;2.90;;
32319;SDS011;19080;51.750;5.888;2023-03-05T00:35:31;8.25;;;2.40;;
32319;SDS011;19080;51.750;5.888;2023-03-05T00:38:03;12.15;;;2.88;;
32319;SDS011;19080;51.750;5.888;2023-03-05T00:40:33;9.55;;;3.40;;
32319;SDS011;19080;51.750;5.888;2023-03-05T00:43:00;11.50;;;3.25;;
32319;SDS011;19080;51.750;5.888;2023-03-05T00:45:27;11.15;;;2.45;;
32319;SDS011;19080;51.750;5.888;2023-03-05T00:47:53;18.35;;;6.10;;
32319;SDS011;19080;51.750;5.888;2023-03-05T00:50:20;13.32;;;4.75;;
32319;SDS011;19080;51.750;5.888;2023-03-05T00:52:47;13.23;;;4.43;;
32319;SDS011;19080;51.750;5.888;2023-03-05T00:55:13;13.90;;;4.25;;
32319;SDS011;19080;51.750;5.888;2023-03-05T00:57:40;17.77;;;3.60;;
32319;SDS011;19080;51.750;5.888;2023-03-05T01:00:08;14.43;;;3.25;;
32319;SDS011;19080;51.750;5.888;2023-03-05T01:02:36;7.63;;;2.47;;
32319;SDS011;19080;51.750;5.888;2023-03-05T01:05:03;13.90;;;2.63;;
32319;SDS011;19080;51.750;5.888;2023-03-05T01:07:30;10.27;;;2.40;;
32319;SDS011;19080;51.750;5.888;2023-03-05T01:09:57;8.77;;;2.78;;
32319;SDS011;19080;51.750;5.888;2023-03-05T01:12:23;14.57;;;3.00;;
32319;SDS011;19080;51.750;5.888;2023-03-05T01:14:50;11.95;;;3.22;;
32319;SDS011;19080;51.750;5.888;2023-03-05T01:17:17;12.13;;;2.58;;
32319;SDS011;19080;51.750;5.888;2023-03-05T01:19:43;15.38;;;3.08;;
32319;SDS011;19080;51.750;5.888;2023-03-05T01:22:10;11.18;;;3.08;;
32319;SDS011;19080;51.750;5.888;2023-03-05T01:24:36;14.43;;;4.90;;
32319;SDS011;19080;51.750;5.888;2023-03-05T01:27:03;11.68;;;2.70;;
32319;SDS011;19080;51.750;5.888;2023-03-05T01:29:30;6.75;;;2.60;;
32319;SDS011;19080;51.750;5.888;2023-03-05T01:31:56;17.40;;;4.57;;
32319;SDS011;19080;51.750;5.888;2023-03-05T01:34:23;10.43;;;2.60;;
32319;SDS011;19080;51.750;5.888;2023-03-05T01:36:50;12.00;;;2.88;;
32319;SDS011;19080;51.750;5.888;2023-03-05T01:39:16;6.00;;;2.40;;
32319;SDS011;19080;51.750;5.888;2023-03-05T01:41:43;8.98;;;3.15;;
32319;SDS011;19080;51.750;5.888;2023-03-05T01:44:20;8.88;;;2.35;;
32319;SDS011;19080;51.750;5.888;2023-03-05T01:46:52;8.85;;;1.98;;
32319;SDS011;19080;51.750;5.888;2023-03-05T01:49:26;10.48;;;2.75;;
32319;SDS011;19080;51.750;5.888;2023-03-05T01:52:06;13.52;;;3.47;;
32319;SDS011;19080;51.750;5.888;2023-03-05T01:54:38;11.70;;;2.42;;
32319;SDS011;19080;51.750;5.888;2023-03-05T01:57:13;14.60;;;4.13;;
32319;SDS011;19080;51.750;5.888;2023-03-05T01:59:48;16.27;;;4.15;;
32319;SDS011;19080;51.750;5.888;2023-03-05T02:02:18;15.85;;;4.57;;
32319;SDS011;19080;51.750;5.888;2023-03-05T02:04:49;12.00;;;2.83;;
32319;SDS011;19080;51.750;5.888;2023-03-05T02:09:47;9.23;;;2.63;;
32319;SDS011;19080;51.750;5.888;2023-03-05T02:12:13;12.45;;;3.85;;
32319;SDS011;19080;51.750;5.888;2023-03-05T02:14:43;16.40;;;4.57;;
32319;SDS011;19080;51.750;5.888;2023-03-05T02:17:12;16.67;;;5.05;;
32319;SDS011;19080;51.750;5.888;2023-03-05T02:20:13;12.35;;;2.83;;
32319;SDS011;19080;51.750;5.888;2023-03-05T02:22:34;11.45;;;2.88;;
32319;SDS011;19080;51.750;5.888;2023-03-05T02:25:00;16.73;;;5.57;;
32319;SDS011;19080;51.750;5.888;2023-03-05T02:27:29;17.50;;;5.68;;
32319;SDS011;19080;51.750;5.888;2023-03-05T02:30:01;13.30;;;4.60;;
32319;SDS011;19080;51.750;5.888;2023-03-05T02:32:28;20.00;;;7.38;;
32319;SDS011;19080;51.750;5.888;2023-03-05T02:34:55;23.60;;;7.93;;
32319;SDS011;19080;51.750;5.888;2023-03-05T02:37:22;21.17;;;6.30;;
32319;SDS011;19080;51.750;5.888;2023-03-05T02:39:50;20.42;;;6.15;;
32319;SDS011;19080;51.750;5.888;2023-03-05T02:42:16;39.97;;;12.07;;
32319;SDS011;19080;51.750;5.888;2023-03-05T02:44:44;13.82;;;3.65;;
32319;SDS011;19080;51.750;5.888;2023-03-05T02:47:10;13.70;;;4.03;;
32319;SDS011;19080;51.750;5.888;2023-03-05T02:49:37;19.35;;;5.30;;
32319;SDS011;19080;51.750;5.888;2023-03-05T02:52:04;18.70;;;7.63;;
32319;SDS011;19080;51.750;5.888;2023-03-05T02:54:31;22.15;;;6.70;;
32319;SDS011;19080;51.750;5.888;2023-03-05T02:56:57;20.30;;;5.40;;
32319;SDS011;19080;51.750;5.888;2023-03-05T02:59:25;18.80;;;4.95;;
32319;SDS011;19080;51.750;5.888;2023-03-05T03:01:51;22.77;;;6.65;;
32319;SDS011;19080;51.750;5.888;2023-03-05T03:04:18;14.35;;;4.60;;
32319;SDS011;19080;51.750;5.888;2023-03-05T03:06:44;5.53;;;2.40;;
32319;SDS011;19080;51.750;5.888;2023-03-05T03:09:11;9.77;;;3.17;;
32319;SDS011;19080;51.750;5.888;2023-03-05T03:11:38;24.40;;;5.72;;
32319;SDS011;19080;51.750;5.888;2023-03-05T03:14:04;18.58;;;5.53;;
32319;SDS011;19080;51.750;5.888;2023-03-05T03:16:32;7.60;;;2.60;;
32319;SDS011;19080;51.750;5.888;2023-03-05T03:18:59;14.18;;;2.90;;
32319;SDS011;19080;51.750;5.888;2023-03-05T03:21:26;25.35;;;5.88;;
32319;SDS011;19080;51.750;5.888;2023-03-05T03:23:52;11.88;;;3.85;;
32319;SDS011;19080;51.750;5.888;2023-03-05T03:26:19;21.40;;;5.10;;
32319;SDS011;19080;51.750;5.888;2023-03-05T03:28:46;10.52;;;3.55;;
32319;SDS011;19080;51.750;5.888;2023-03-05T03:31:12;13.57;;;3.60;;
32319;SDS011;19080;51.750;5.888;2023-03-05T03:33:39;13.15;;;3.55;;
32319;SDS011;19080;51.750;5.888;2023-03-05T03:36:06;6.82;;;2.80;;
32319;SDS011;19080;51.750;5.888;2023-03-05T03:38:33;11.88;;;3.10;;
32319;SDS011;19080;51.750;5.888;2023-03-05T03:40:59;10.52;;;3.22;;
32319;SDS011;19080;51.750;5.888;2023-03-05T03:43:26;9.30;;;3.33;;
32319;SDS011;19080;51.750;5.888;2023-03-05T03:45:53;10.85;;;4.45;;
32319;SDS011;19080;51.750;5.888;2023-03-05T03:48:19;14.77;;;4.75;;
32319;SDS011;19080;51.750;5.888;2023-03-05T03:50:46;11.63;;;3.95;;
32319;SDS011;19080;51.750;5.888;2023-03-05T03:53:12;8.40;;;3.17;;
32319;SDS011;19080;51.750;5.888;2023-03-05T03:55:40;14.07;;;3.50;;
32319;SDS011;19080;51.750;5.888;2023-03-05T03:58:11;10.27;;;3.05;;
32319;SDS011;19080;51.750;5.888;2023-03-05T04:00:38;10.98;;;3.10;;
32319;SDS011;19080;51.750;5.888;2023-03-05T04:03:06;7.00;;;2.67;;
32319;SDS011;19080;51.750;5.888;2023-03-05T04:05:33;9.15;;;3.05;;
32319;SDS011;19080;51.750;5.888;2023-03-05T04:08:00;9.80;;;3.05;;
32319;SDS011;19080;51.750;5.888;2023-03-05T04:10:26;14.15;;;3.13;;
32319;SDS011;19080;51.750;5.888;2023-03-05T04:12:53;10.95;;;3.10;;
32319;SDS011;19080;51.750;5.888;2023-03-05T04:15:20;14.02;;;3.53;;
32319;SDS011;19080;51.750;5.888;2023-03-05T04:17:46;20.30;;;4.93;;
32319;SDS011;19080;51.750;5.888;2023-03-05T04:20:13;11.85;;;3.30;;
32319;SDS011;19080;51.750;5.888;2023-03-05T04:22:40;11.95;;;3.42;;
32319;SDS011;19080;51.750;5.888;2023-03-05T04:25:06;9.90;;;3.40;;
32319;SDS011;19080;51.750;5.888;2023-03-05T04:27:33;10.05;;;3.22;;
32319;SDS011;19080;51.750;5.888;2023-03-05T04:30:01;14.20;;;3.97;;
32319;SDS011;19080;51.750;5.888;2023-03-05T04:32:28;9.88;;;4.22;;
32319;SDS011;19080;51.750;5.888;2023-03-05T04:34:56;12.85;;;4.32;;
32319;SDS011;19080;51.750;5.888;2023-03-05T04:37:23;18.05;;;3.83;;
32319;SDS011;19080;51.750;5.888;2023-03-05T04:39:51;10.07;;;3.70;;
32319;SDS011;19080;51.750;5.888;2023-03-05T04:42:18;11.35;;;3.38;;
32319;SDS011;19080;51.750;5.888;2023-03-05T04:44:47;10.40;;;4.05;;
32319;SDS011;19080;51.750;5.888;2023-03-05T04:47:14;9.35;;;3.60;;
32319;SDS011;19080;51.750;5.888;2023-03-05T04:49:42;11.18;;;3.85;;
32319;SDS011;19080;51.750;5.888;2023-03-05T04:52:09;10.85;;;3.90;;
32319;SDS011;19080;51.750;5.888;2023-03-05T04:54:37;10.55;;;3.65;;
32319;SDS011;19080;51.750;5.888;2023-03-05T04:57:04;8.65;;;3.53;;
32319;SDS011;19080;51.750;5.888;2023-03-05T04:59:31;15.75;;;3.78;;
32319;SDS011;19080;51.750;5.888;2023-03-05T05:01:58;9.55;;;3.28;;
32319;SDS011;19080;51.750;5.888;2023-03-05T05:04:24;8.35;;;3.38;;
32319;SDS011;19080;51.750;5.888;2023-03-05T05:06:53;10.55;;;3.30;;
32319;SDS011;19080;51.750;5.888;2023-03-05T05:09:21;16.20;;;2.90;;
32319;SDS011;19080;51.750;5.888;2023-03-05T05:11:48;7.93;;;2.88;;
32319;SDS011;19080;51.750;5.888;2023-03-05T05:14:15;11.50;;;3.60;;
32319;SDS011;19080;51.750;5.888;2023-03-05T05:16:41;13.57;;;3.58;;
32319;SDS011;19080;51.750;5.888;2023-03-05T05:19:08;10.68;;;3.28;;
32319;SDS011;19080;51.750;5.888;2023-03-05T05:21:35;6.53;;;3.03;;
32319;SDS011;19080;51.750;5.888;2023-03-05T05:24:02;9.90;;;3.83;;
32319;SDS011;19080;51.750;5.888;2023-03-05T05:26:29;11.88;;;3.70;;
32319;SDS011;19080;51.750;5.888;2023-03-05T05:28:55;11.93;;;4.43;;
32319;SDS011;19080;51.750;5.888;2023-03-05T05:31:22;15.00;;;3.50;;
32319;SDS011;19080;51.750;5.888;2023-03-05T05:33:49;9.85;;;2.90;;
32319;SDS011;19080;51.750;5.888;2023-03-05T05:36:15;12.15;;;3.25;;
32319;SDS011;19080;51.750;5.888;2023-03-05T05:38:44;11.05;;;3.60;;
32319;SDS011;19080;51.750;5.888;2023-03-05T05:41:12;10.30;;;3.00;;
32319;SDS011;19080;51.750;5.888;2023-03-05T05:43:40;8.23;;;3.40;;
32319;SDS011;19080;51.750;5.888;2023-03-05T05:46:09;13.18;;;3.38;;
32319;SDS011;19080;51.750;5.888;2023-03-05T05:48:38;7.50;;;3.22;;
32319;SDS011;19080;51.750;5.888;2023-03-05T05:51:05;10.55;;;3.47;;
32319;SDS011;19080;51.750;5.888;2023-03-05T05:53:34;11.00;;;3.10;;
32319;SDS011;19080;51.750;5.888;2023-03-05T05:56:03;16.92;;;4.15;;
32319;SDS011;19080;51.750;5.888;2023-03-05T05:58:31;7.25;;;3.00;;
32319;SDS011;19080;51.750;5.888;2023-03-05T06:00:57;16.15;;;4.40;;
32319;SDS011;19080;51.750;5.888;2023-03-05T06:03:24;8.27;;;3.45;;
32319;SDS011;19080;51.750;5.888;2023-03-05T06:05:51;9.40;;;4.00;;
32319;SDS011;19080;51.750;5.888;2023-03-05T06:08:17;10.30;;;4.28;;
32319;SDS011;19080;51.750;5.888;2023-03-05T06:10:44;9.25;;;3.63;;
32319;SDS011;19080;51.750;5.888;2023-03-05T06:13:19;12.20;;;4.40;;
32319;SDS011;19080;51.750;5.888;2023-03-05T06:15:53;14.80;;;5.47;;
32319;SDS011;19080;51.750;5.888;2023-03-05T06:18:21;9.85;;;4.00;;
32319;SDS011;19080;51.750;5.888;2023-03-05T06:20:57;7.72;;;3.05;;
32319;SDS011;19080;51.750;5.888;2023-03-05T06:23:26;9.07;;;4.30;;
32319;SDS011;19080;51.750;5.888;2023-03-05T06:25:53;7.88;;;3.80;;
32319;SDS011;19080;51.750;5.888;2023-03-05T06:28:21;10.25;;;4.22;;
32319;SDS011;19080;51.750;5.888;2023-03-05T06:30:47;13.68;;;5.63;;
32319;SDS011;19080;51.750;5.888;2023-03-05T06:33:14;21.77;;;8.95;;
32319;SDS011;19080;51.750;5.888;2023-03-05T06:35:41;14.23;;;5.63;;
32319;SDS011;19080;51.750;5.888;2023-03-05T06:38:07;17.75;;;5.20;;
32319;SDS011;19080;51.750;5.888;2023-03-05T06:40:34;14.73;;;6.65;;
32319;SDS011;19080;51.750;5.888;2023-03-05T06:43:04;12.55;;;4.82;;
32319;SDS011;19080;51.750;5.888;2023-03-05T06:45:30;11.30;;;4.80;;
32319;SDS011;19080;51.750;5.888;2023-03-05T06:47:57;16.45;;;5.70;;
32319;SDS011;19080;51.750;5.888;2023-03-05T06:50:23;12.77;;;4.55;;
32319;SDS011;19080;51.750;5.888;2023-03-05T06:52:50;13.38;;;5.85;;
32319;SDS011;19080;51.750;5.888;2023-03-05T06:55:17;11.77;;;6.53;;
32319;SDS011;19080;51.750;5.888;2023-03-05T06:57:44;13.00;;;5.05;;
32319;SDS011;19080;51.750;5.888;2023-03-05T07:00:10;12.93;;;5.63;;
32319;SDS011;19080;51.750;5.888;2023-03-05T07:02:38;12.60;;;5.80;;
32319;SDS011;19080;51.750;5.888;2023-03-05T07:05:05;14.30;;;5.60;;
32319;SDS011;19080;51.750;5.888;2023-03-05T07:07:33;11.48;;;5.25;;
32319;SDS011;19080;51.750;5.888;2023-03-05T07:10:00;10.90;;;6.07;;
32319;SDS011;19080;51.750;5.888;2023-03-05T07:12:27;9.30;;;6.15;;
32319;SDS011;19080;51.750;5.888;2023-03-05T07:14:53;13.60;;;6.72;;
32319;SDS011;19080;51.750;5.888;2023-03-05T07:17:20;11.23;;;5.70;;
32319;SDS011;19080;51.750;5.888;2023-03-05T07:19:46;12.80;;;6.70;;
32319;SDS011;19080;51.750;5.888;2023-03-05T07:22:13;15.93;;;7.85;;
32319;SDS011;19080;51.750;5.888;2023-03-05T07:24:39;12.15;;;6.13;;
32319;SDS011;19080;51.750;5.888;2023-03-05T07:27:06;10.68;;;6.13;;
32319;SDS011;19080;51.750;5.888;2023-03-05T07:29:33;10.23;;;5.72;;
32319;SDS011;19080;51.750;5.888;2023-03-05T07:31:59;9.32;;;6.30;;
32319;SDS011;19080;51.750;5.888;2023-03-05T07:34:26;14.85;;;6.20;;
32319;SDS011;19080;51.750;5.888;2023-03-05T07:36:52;14.60;;;6.05;;
32319;SDS011;19080;51.750;5.888;2023-03-05T07:39:19;6.82;;;5.10;;
32319;SDS011;19080;51.750;5.888;2023-03-05T07:41:46;10.63;;;6.45;;
32319;SDS011;19080;51.750;5.888;2023-03-05T07:44:14;10.20;;;5.90;;
32319;SDS011;19080;51.750;5.888;2023-03-05T07:46:42;6.70;;;4.55;;
32319;SDS011;19080;51.750;5.888;2023-03-05T07:49:09;9.15;;;5.28;;
32319;SDS011;19080;51.750;5.888;2023-03-05T07:51:36;8.82;;;5.22;;
32319;SDS011;19080;51.750;5.888;2023-03-05T07:54:02;9.57;;;5.20;;
32319;SDS011;19080;51.750;5.888;2023-03-05T07:56:30;6.50;;;4.30;;
32319;SDS011;19080;51.750;5.888;2023-03-05T07:59:01;7.32;;;4.43;;
32319;SDS011;19080;51.750;5.888;2023-03-05T08:01:31;5.75;;;4.13;;
32319;SDS011;19080;51.750;5.888;2023-03-05T08:04:00;9.23;;;4.28;;
32319;SDS011;19080;51.750;5.888;2023-03-05T08:06:27;7.65;;;4.57;;
32319;SDS011;19080;51.750;5.888;2023-03-05T08:08:54;7.53;;;4.43;;
32319;SDS011;19080;51.750;5.888;2023-03-05T08:11:21;11.07;;;4.82;;
32319;SDS011;19080;51.750;5.888;2023-03-05T08:13:47;9.77;;;4.63;;
32319;SDS011;19080;51.750;5.888;2023-03-05T08:16:15;9.35;;;5.20;;
32319;SDS011;19080;51.750;5.888;2023-03-05T08:18:44;10.68;;;5.93;;
32319;SDS011;19080;51.750;5.888;2023-03-05T08:21:22;7.43;;;5.00;;
32319;SDS011;19080;51.750;5.888;2023-03-05T08:26:22;8.27;;;4.80;;
32319;SDS011;19080;51.750;5.888;2023-03-05T08:28:51;9.85;;;4.80;;
32319;SDS011;19080;51.750;5.888;2023-03-05T08:31:18;7.95;;;5.32;;
32319;SDS011;19080;51.750;5.888;2023-03-05T08:33:48;10.38;;;5.60;;
32319;SDS011;19080;51.750;5.888;2023-03-05T08:36:15;12.35;;;6.35;;
32319;SDS011;19080;51.750;5.888;2023-03-05T08:38:42;15.52;;;8.43;;
32319;SDS011;19080;51.750;5.888;2023-03-05T08:41:09;13.40;;;7.47;;
32319;SDS011;19080;51.750;5.888;2023-03-05T08:43:36;9.95;;;5.47;;
32319;SDS011;19080;51.750;5.888;2023-03-05T08:46:03;6.55;;;4.40;;
32319;SDS011;19080;51.750;5.888;2023-03-05T08:48:30;8.85;;;4.65;;
32319;SDS011;19080;51.750;5.888;2023-03-05T08:50:57;6.35;;;4.07;;
32319;SDS011;19080;51.750;5.888;2023-03-05T08:53:30;7.50;;;3.95;;
32319;SDS011;19080;51.750;5.888;2023-03-05T08:55:56;5.97;;;3.30;;
32319;SDS011;19080;51.750;5.888;2023-03-05T08:58:23;4.20;;;3.20;;
32319;SDS011;19080;51.750;5.888;2023-03-05T09:00:50;7.75;;;4.00;;
32319;SDS011;19080;51.750;5.888;2023-03-05T09:03:17;7.30;;;4.32;;
32319;SDS011;19080;51.750;5.888;2023-03-05T09:05:44;7.28;;;4.50;;
32319;SDS011;19080;51.750;5.888;2023-03-05T09:08:11;8.07;;;3.17;;
32319;SDS011;19080;51.750;5.888;2023-03-05T09:10:39;8.80;;;4.60;;
32319;SDS011;19080;51.750;5.888;2023-03-05T09:13:07;17.52;;;6.82;;
32319;SDS011;19080;51.750;5.888;2023-03-05T09:15:34;14.48;;;7.07;;
32319;SDS011;19080;51.750;5.888;2023-03-05T09:18:01;10.13;;;4.78;;
32319;SDS011;19080;51.750;5.888;2023-03-05T09:20:28;6.35;;;3.33;;
32319;SDS011;19080;51.750;5.888;2023-03-05T09:22:55;8.25;;;3.58;;
32319;SDS011;19080;51.750;5.888;2023-03-05T09:25:21;5.95;;;2.85;;
32319;SDS011;19080;51.750;5.888;2023-03-05T09:27:48;5.30;;;3.03;;
32319;SDS011;19080;51.750;5.888;2023-03-05T09:30:15;5.72;;;3.10;;
32319;SDS011;19080;51.750;5.888;2023-03-05T09:32:42;7.13;;;4.18;;
32319;SDS011;19080;51.750;5.888;2023-03-05T09:35:08;5.00;;;2.45;;
32319;SDS011;19080;51.750;5.888;2023-03-05T09:37:36;4.90;;;3.10;;
32319;SDS011;19080;51.750;5.888;2023-03-05T09:40:02;5.05;;;3.03;;
32319;SDS011;19080;51.750;5.888;2023-03-05T09:51:28;9.85;;;4.97;;
32319;SDS011;19080;51.750;5.888;2023-03-05T09:54:01;4.25;;;3.30;;
32319;SDS011;19080;51.750;5.888;2023-03-05T09:56:30;7.45;;;3.22;;
32319;SDS011;19080;51.750;5.888;2023-03-05T09:59:02;8.00;;;3.20;;
32319;SDS011;19080;51.750;5.888;2023-03-05T10:01:41;8.02;;;3.30;;
32319;SDS011;19080;51.750;5.888;2023-03-05T10:04:13;7.43;;;2.88;;
32319;SDS011;19080;51.750;5.888;2023-03-05T10:10:08;4.97;;;1.73;;
32319;SDS011;19080;51.750;5.888;2023-03-05T10:12:47;4.60;;;2.40;;
32319;SDS011;19080;51.750;5.888;2023-03-05T10:20:23;6.30;;;3.10;;
32319;SDS011;19080;51.750;5.888;2023-03-05T10:25:36;7.85;;;3.80;;
32319;SDS011;19080;51.750;5.888;2023-03-05T10:28:27;5.18;;;3.35;;
32319;SDS011;19080;51.750;5.888;2023-03-05T10:34:05;7.22;;;2.50;;
32319;SDS011;19080;51.750;5.888;2023-03-05T10:42:15;1.77;;;0.90;;
32319;SDS011;19080;51.750;5.888;2023-03-05T10:44:57;8.00;;;1.67;;
32319;SDS011;19080;51.750;5.888;2023-03-05T10:50:20;7.95;;;2.50;;
32319;SDS011;19080;51.750;5.888;2023-03-05T10:55:46;5.95;;;2.40;;
32319;SDS011;19080;51.750;5.888;2023-03-05T10:58:13;7.00;;;2.72;;
32319;SDS011;19080;51.750;5.888;2023-03-05T11:01:01;5.93;;;2.40;;
32319;SDS011;19080;51.750;5.888;2023-03-05T11:04:24;3.38;;;1.98;;
32319;SDS011;19080;51.750;5.888;2023-03-05T11:12:00;5.75;;;2.42;;
32319;SDS011;19080;51.750;5.888;2023-03-05T11:14:30;3.25;;;1.98;;
32319;SDS011;19080;51.750;5.888;2023-03-05T11:16:59;4.47;;;1.88;;
32319;SDS011;19080;51.750;5.888;2023-03-05T11:19:30;5.38;;;2.13;;
32319;SDS011;19080;51.750;5.888;2023-03-05T11:22:18;4.95;;;2.15;;
32319;SDS011;19080;51.750;5.888;2023-03-05T11:25:02;4.60;;;2.10;;
32319;SDS011;19080;51.750;5.888;2023-03-05T11:27:43;4.07;;;2.03;;
32319;SDS011;19080;51.750;5.888;2023-03-05T11:30:18;3.78;;;2.17;;
32319;SDS011;19080;51.750;5.888;2023-03-05T11:32:47;4.80;;;2.25;;
32319;SDS011;19080;51.750;5.888;2023-03-05T11:35:30;1.27;;;1.17;;
32319;SDS011;19080;51.750;5.888;2023-03-05T11:37:59;8.38;;;2.10;;
32319;SDS011;19080;51.750;5.888;2023-03-05T11:40:29;2.00;;;1.58;;
32319;SDS011;19080;51.750;5.888;2023-03-05T11:42:58;6.80;;;1.25;;
32319;SDS011;19080;51.750;5.888;2023-03-05T11:45:28;2.63;;;1.45;;
32319;SDS011;19080;51.750;5.888;2023-03-05T11:48:00;2.92;;;1.20;;
32319;SDS011;19080;51.750;5.888;2023-03-05T11:50:47;2.38;;;1.00;;
32319;SDS011;19080;51.750;5.888;2023-03-05T11:53:33;3.08;;;1.60;;
32319;SDS011;19080;51.750;5.888;2023-03-05T11:56:11;2.95;;;1.65;;
32319;SDS011;19080;51.750;5.888;2023-03-05T11:58:49;3.28;;;1.25;;
32319;SDS011;19080;51.750;5.888;2023-03-05T12:01:23;2.33;;;1.73;;
32319;SDS011;19080;51.750;5.888;2023-03-05T12:09:08;4.20;;;2.55;;
32319;SDS011;19080;51.750;5.888;2023-03-05T12:11:41;2.33;;;2.13;;
32319;SDS011;19080;51.750;5.888;2023-03-05T12:16:45;3.30;;;1.58;;
32319;SDS011;19080;51.750;5.888;2023-03-05T12:19:30;2.95;;;1.20;;
32319;SDS011;19080;51.750;5.888;2023-03-05T12:22:04;5.03;;;2.08;;
32319;SDS011;19080;51.750;5.888;2023-03-05T12:24:42;5.00;;;1.60;;
32319;SDS011;19080;51.750;5.888;2023-03-05T12:27:10;4.95;;;1.90;;
32319;SDS011;19080;51.750;5.888;2023-03-05T12:29:44;5.55;;;2.90;;
32319;SDS011;19080;51.750;5.888;2023-03-05T12:34:49;4.13;;;1.65;;
32319;SDS011;19080;51.750;5.888;2023-03-05T12:47:39;7.07;;;2.92;;
32319;SDS011;19080;51.750;5.888;2023-03-05T12:52:52;3.00;;;2.53;;
32319;SDS011;19080;51.750;5.888;2023-03-05T12:58:19;1.98;;;1.40;;
32319;SDS011;19080;51.750;5.888;2023-03-05T13:00:51;2.58;;;1.73;;
32319;SDS011;19080;51.750;5.888;2023-03-05T13:03:29;5.32;;;3.30;;
32319;SDS011;19080;51.750;5.888;2023-03-05T13:06:00;4.53;;;1.95;;
32319;SDS011;19080;51.750;5.888;2023-03-05T13:08:30;9.35;;;3.40;;
32319;SDS011;19080;51.750;5.888;2023-03-05T13:11:02;3.15;;;1.48;;
32319;SDS011;19080;51.750;5.888;2023-03-05T13:13:30;4.75;;;2.20;;
32319;SDS011;19080;51.750;5.888;2023-03-05T13:16:01;4.32;;;2.25;;
32319;SDS011;19080;51.750;5.888;2023-03-05T13:18:29;3.30;;;0.73;;
32319;SDS011;19080;51.750;5.888;2023-03-05T13:21:05;2.85;;;0.93;;
32319;SDS011;19080;51.750;5.888;2023-03-05T13:23:49;4.07;;;1.17;;
32319;SDS011;19080;51.750;5.888;2023-03-05T13:26:27;3.97;;;1.00;;
32319;SDS011;19080;51.750;5.888;2023-03-05T13:34:23;7.15;;;2.85;;
32319;SDS011;19080;51.750;5.888;2023-03-05T13:37:01;6.03;;;2.30;;
32319;SDS011;19080;51.750;5.888;2023-03-05T13:39:34;17.67;;;7.15;;
32319;SDS011;19080;51.750;5.888;2023-03-05T13:42:14;3.22;;;2.17;;
32319;SDS011;19080;51.750;5.888;2023-03-05T13:44:43;3.70;;;1.95;;
32319;SDS011;19080;51.750;5.888;2023-03-05T13:47:20;2.60;;;1.63;;
32319;SDS011;19080;51.750;5.888;2023-03-05T13:49:58;8.20;;;5.13;;
32319;SDS011;19080;51.750;5.888;2023-03-05T13:52:27;3.50;;;1.90;;
32319;SDS011;19080;51.750;5.888;2023-03-05T13:54:58;2.85;;;1.42;;
32319;SDS011;19080;51.750;5.888;2023-03-05T13:57:39;2.85;;;1.90;;
32319;SDS011;19080;51.750;5.888;2023-03-05T14:00:24;2.67;;;1.35;;
32319;SDS011;19080;51.750;5.888;2023-03-05T14:03:06;1.83;;;1.00;;
32319;SDS011;19080;51.750;5.888;2023-03-05T14:05:36;4.22;;;1.08;;
32319;SDS011;19080;51.750;5.888;2023-03-05T14:08:12;1.30;;;1.10;;
32319;SDS011;19080;51.750;5.888;2023-03-05T14:10:46;6.97;;;6.15;;
32319;SDS011;19080;51.750;5.888;2023-03-05T14:13:18;12.05;;;7.00;;
32319;SDS011;19080;51.750;5.888;2023-03-05T14:16:04;4.45;;;2.78;;
32319;SDS011;19080;51.750;5.888;2023-03-05T14:18:33;3.15;;;1.33;;
32319;SDS011;19080;51.750;5.888;2023-03-05T14:21:07;4.55;;;1.25;;
32319;SDS011;19080;51.750;5.888;2023-03-05T14:26:20;4.63;;;2.30;;
32319;SDS011;19080;51.750;5.888;2023-03-05T14:31:35;2.30;;;0.75;;
32319;SDS011;19080;51.750;5.888;2023-03-05T14:34:16;2.03;;;1.20;;
32319;SDS011;19080;51.750;5.888;2023-03-05T14:36:57;2.05;;;0.93;;
32319;SDS011;19080;51.750;5.888;2023-03-05T14:45:00;3.83;;;0.93;;
32319;SDS011;19080;51.750;5.888;2023-03-05T14:47:40;1.73;;;0.68;;
32319;SDS011;19080;51.750;5.888;2023-03-05T14:50:07;2.53;;;0.93;;
32319;SDS011;19080;51.750;5.888;2023-03-05T14:52:39;3.70;;;0.88;;
32319;SDS011;19080;51.750;5.888;2023-03-05T14:55:06;1.67;;;0.80;;
32319;SDS011;19080;51.750;5.888;2023-03-05T14:57:38;2.70;;;1.00;;
32319;SDS011;19080;51.750;5.888;2023-03-05T15:00:09;6.57;;;2.42;;
32319;SDS011;19080;51.750;5.888;2023-03-05T15:02:42;2.97;;;1.10;;
32319;SDS011;19080;51.750;5.888;2023-03-05T15:05:08;4.03;;;1.65;;
32319;SDS011;19080;51.750;5.888;2023-03-05T15:07:35;3.65;;;1.80;;
32319;SDS011;19080;51.750;5.888;2023-03-05T15:10:03;4.35;;;2.08;;
32319;SDS011;19080;51.750;5.888;2023-03-05T15:12:30;19.48;;;6.68;;
32319;SDS011;19080;51.750;5.888;2023-03-05T15:14:56;8.55;;;3.70;;
32319;SDS011;19080;51.750;5.888;2023-03-05T15:17:32;14.52;;;5.13;;
32319;SDS011;19080;51.750;5.888;2023-03-05T15:20:02;9.70;;;3.83;;
32319;SDS011;19080;51.750;5.888;2023-03-05T15:22:34;10.18;;;4.38;;
32319;SDS011;19080;51.750;5.888;2023-03-05T15:25:01;10.43;;;4.60;;
32319;SDS011;19080;51.750;5.888;2023-03-05T15:27:29;27.58;;;11.05;;
32319;SDS011;19080;51.750;5.888;2023-03-05T15:29:55;21.90;;;8.82;;
32319;SDS011;19080;51.750;5.888;2023-03-05T15:32:22;9.00;;;5.32;;
32319;SDS011;19080;51.750;5.888;2023-03-05T15:34:52;3.08;;;2.35;;
32319;SDS011;19080;51.750;5.888;2023-03-05T15:37:19;4.70;;;1.73;;
32319;SDS011;19080;51.750;5.888;2023-03-05T15:39:46;2.58;;;1.80;;
32319;SDS011;19080;51.750;5.888;2023-03-05T15:42:13;2.60;;;1.60;;
32319;SDS011;19080;51.750;5.888;2023-03-05T15:44:40;2.53;;;1.73;;
32319;SDS011;19080;51.750;5.888;2023-03-05T15:47:07;2.55;;;2.33;;
32319;SDS011;19080;51.750;5.888;2023-03-05T15:49:34;16.42;;;9.70;;
32319;SDS011;19080;51.750;5.888;2023-03-05T15:52:01;4.95;;;2.28;;
32319;SDS011;19080;51.750;5.888;2023-03-05T15:54:27;4.72;;;2.45;;
32319;SDS011;19080;51.750;5.888;2023-03-05T15:56:54;4.75;;;3.30;;
32319;SDS011;19080;51.750;5.888;2023-03-05T15:59:20;5.28;;;3.15;;
32319;SDS011;19080;51.750;5.888;2023-03-05T16:01:48;11.60;;;6.68;;
32319;SDS011;19080;51.750;5.888;2023-03-05T16:04:16;4.30;;;3.15;;
32319;SDS011;19080;51.750;5.888;2023-03-05T16:06:43;5.03;;;3.95;;
32319;SDS011;19080;51.750;5.888;2023-03-05T16:09:12;6.53;;;3.15;;
32319;SDS011;19080;51.750;5.888;2023-03-05T16:11:41;4.15;;;2.70;;
32319;SDS011;19080;51.750;5.888;2023-03-05T16:14:14;3.53;;;2.83;;
32319;SDS011;19080;51.750;5.888;2023-03-05T16:16:44;4.28;;;2.72;;
32319;SDS011;19080;51.750;5.888;2023-03-05T16:19:11;7.28;;;3.42;;
32319;SDS011;19080;51.750;5.888;2023-03-05T16:21:40;3.28;;;2.13;;